Time;durP1;ratioP1;P1;durP2;ratioP2;P2;SDS_P1;SDS_P2;PMS_P1;PMS_P2;Temp;Humidity;BMP_temperature;BMP_pressure;BME280_temperature;BME280_humidity;BME280_pressure;Samples;Min_cycle;Max_cycle;Signal;HPM_P1;HPM_P2
2020/12/10 00:00:46;;;;;;;41;24.7;;;;;;;-2.89;88.13281;98285.75;;;;
2020/12/10 00:10:43;;;;;;;39.3;25.6;;;;;;;-2.89;88.27441;98275.2;;;;
2020/12/10 00:20:41;;;;;;;46.2;25.6;;;;;;;-2.86;88.12988;98262.37;;;;
2020/12/10 00:30:38;;;;;;;34.6;23.6;;;;;;;-2.89;88.41602;98260.19;;;;
2020/12/10 00:40:36;;;;;;;35.6;26.1;;;;;;;-2.98;88.58301;98266.01;;;;
2020/12/10 00:50:33;;;;;;;44.2;30;;;;;;;-3.05;88.7002;98252.94;;;;
2020/12/10 01:00:31;;;;;;;37.6;21.5;;;;;;;-3;88.67871;98258.34;;;;
2020/12/10 01:10:28;;;;;;;34.4;21.8;;;;;;;-2.93;88.21094;98255.59;;;;
2020/12/10 01:20:26;;;;;;;31;21;;;;;;;-3.06;88.37207;98225.81;;;;
2020/12/10 01:30:26;;;;;;;39.2;20.2;;;;;;;-3.05;88.50488;98214.22;;;;
2020/12/10 01:40:20;;;;;;;32;21.7;;;;;;;-3.02;88.5752;98212.17;;;;
2020/12/10 01:50:18;;;;;;;35.8;23.3;;;;;;;-3.07;88.38965;98202.3;;;;
2020/12/10 02:00:15;;;;;;;29.2;19.5;;;;;;;-3.11;88.61133;98187.98;;;;
2020/12/10 02:10:13;;;;;;;29.5;22.1;;;;;;;-3.22;89.19629;98170.33;;;;
2020/12/10 02:20:13;;;;;;;38.2;20.8;;;;;;;-3.24;89.4209;98177.67;;;;
2020/12/10 02:30:07;;;;;;;32.5;21.6;;;;;;;-3.25;89.45215;98173.42;;;;
2020/12/10 02:40:05;;;;;;;36.3;20.2;;;;;;;-3.15;89.16992;98169.19;;;;
2020/12/10 02:50:02;;;;;;;41.6;21.2;;;;;;;-3.15;89.27637;98165.74;;;;
2020/12/10 02:59:59;;;;;;;30.4;21.6;;;;;;;-3.1;88.97266;98145.59;;;;
2020/12/10 03:09:57;;;;;;;35.7;22.8;;;;;;;-3.07;89.05566;98131.95;;;;
2020/12/10 03:19:54;;;;;;;29.5;20.4;;;;;;;-3.1;89.38574;98121.06;;;;
2020/12/10 03:29:52;;;;;;;28.5;17.9;;;;;;;-3.32;89.89551;98115.58;;;;
2020/12/10 03:39:49;;;;;;;36.5;25.2;;;;;;;-3.18;89.59766;98108.23;;;;
2020/12/10 03:49:46;;;;;;;36.5;24.1;;;;;;;-3.24;90.41309;98091.52;;;;
2020/12/10 03:59:44;;;;;;;31.3;22.1;;;;;;;-3.14;90.41016;98085.66;;;;
2020/12/10 04:09:41;;;;;;;35.1;25.3;;;;;;;-3.14;90.09668;98091.73;;;;
2020/12/10 04:19:38;;;;;;;29.5;18.4;;;;;;;-3.1;89.86523;98077.06;;;;
2020/12/10 04:29:36;;;;;;;33.4;24.3;;;;;;;-3.13;89.97852;98061.72;;;;
2020/12/10 04:39:33;;;;;;;41.6;21.7;;;;;;;-3.04;90.07227;98051.6;;;;
2020/12/10 04:49:31;;;;;;;32.9;22.2;;;;;;;-3.06;90.35352;98057.13;;;;
2020/12/10 04:59:28;;;;;;;38.4;22.8;;;;;;;-3.03;90.1084;98058.48;;;;
2020/12/10 05:09:25;;;;;;;38.1;21.1;;;;;;;-2.97;89.92383;98056.73;;;;
2020/12/10 05:19:23;;;;;;;40.8;24.9;;;;;;;-3;89.95313;98042.2;;;;
2020/12/10 05:29:20;;;;;;;30.5;20.9;;;;;;;-3.09;90.17383;98041.75;;;;
2020/12/10 05:39:18;;;;;;;33.3;22.6;;;;;;;-3.09;90.19531;98039.11;;;;
2020/12/10 05:49:15;;;;;;;27.9;17.8;;;;;;;-3.01;90.03418;98037.14;;;;
2020/12/10 05:59:13;;;;;;;44.9;25.9;;;;;;;-2.98;89.61719;98039.31;;;;
2020/12/10 06:09:10;;;;;;;34.8;23.6;;;;;;;-2.99;89.76758;98029.83;;;;
2020/12/10 06:19:10;;;;;;;41.5;25.4;;;;;;;-3;89.66992;98026.38;;;;
2020/12/10 06:29:22;;;;;;;47;30.1;;;;;;;-3.06;90.2207;98019.42;;;;
2020/12/10 06:39:02;;;;;;;43.6;23;;;;;;;-3.03;90.08496;98012.88;;;;
2020/12/10 06:49:01;;;;;;;38.5;27;;;;;;;-3.03;90.11816;98004.97;;;;
2020/12/10 06:58:58;;;;;;;27.6;19.2;;;;;;;-3;89.72266;97996.58;;;;
2020/12/10 07:08:54;;;;;;;22.6;16.8;;;;;;;-2.93;89.3125;97987.51;;;;
2020/12/10 07:18:52;;;;;;;24.6;17.8;;;;;;;-2.81;88.33496;97979.56;;;;
2020/12/10 07:28:49;;;;;;;28.8;20.4;;;;;;;-2.83;88.375;97965.8;;;;
2020/12/10 07:38:47;;;;;;;27.4;14.2;;;;;;;-2.64;87.9668;97954.02;;;;
2020/12/10 07:48:45;;;;;;;22;16.5;;;;;;;-2.5;87.28906;97960.58;;;;
2020/12/10 07:58:45;;;;;;;20.9;17.5;;;;;;;-2.5;87.375;97949.22;;;;
2020/12/10 08:08:42;;;;;;;21.5;16.6;;;;;;;-2.35;87.13379;97949.45;;;;
2020/12/10 08:18:37;;;;;;;23.6;15.2;;;;;;;-2.32;87.06445;97947.13;;;;
2020/12/10 08:28:37;;;;;;;28.1;17;;;;;;;-2.3;87.03516;97934.52;;;;
2020/12/10 08:38:32;;;;;;;26.3;16.9;;;;;;;-2.28;86.53711;97940.34;;;;
2020/12/10 08:48:29;;;;;;;25.9;17.9;;;;;;;-2.3;86.82813;97926.59;;;;
2020/12/10 08:58:27;;;;;;;21.9;14.9;;;;;;;-2.19;86.56738;97912.52;;;;
2020/12/10 09:08:24;;;;;;;21.6;14.9;;;;;;;-2.1;85.66699;97908.41;;;;
2020/12/10 09:18:21;;;;;;;26.9;16.8;;;;;;;-1.67;84.62891;97894.47;;;;
2020/12/10 09:28:19;;;;;;;18.3;15.9;;;;;;;-1.74;84.27344;97885.13;;;;
2020/12/10 09:38:16;;;;;;;25.2;17.3;;;;;;;-1.47;84.19531;97880.69;;;;
2020/12/10 09:48:14;;;;;;;24.5;17.4;;;;;;;-1.48;83.7793;97868.51;;;;
2020/12/10 09:58:12;;;;;;;21.9;18.4;;;;;;;-1.29;82.99512;97863.7;;;;
2020/12/10 10:08:09;;;;;;;24.1;14.8;;;;;;;-1.32;83.15234;97840.41;;;;
2020/12/10 10:18:07;;;;;;;22.2;16;;;;;;;-1.47;83.76855;97838.41;;;;
2020/12/10 10:28:04;;;;;;;22.1;16;;;;;;;-1.45;84.10059;97814.36;;;;
2020/12/10 10:38:02;;;;;;;28;15.2;;;;;;;-1.44;84.00488;97808.84;;;;
2020/12/10 10:48:02;;;;;;;26.8;16.3;;;;;;;-1.5;84.62793;97806.4;;;;
2020/12/10 10:57:57;;;;;;;28.1;14.8;;;;;;;-1.58;85.13672;97778.58;;;;
2020/12/10 11:07:55;;;;;;;24.3;17.8;;;;;;;-1.7;85.93359;97786.63;;;;
2020/12/10 11:17:52;;;;;;;19.8;14;;;;;;;-1.61;85.89648;97789.64;;;;
2020/12/10 11:27:50;;;;;;;20.8;14.5;;;;;;;-1.46;85.63086;97778.44;;;;
2020/12/10 11:37:48;;;;;;;24.3;14.9;;;;;;;-1.44;85.71094;97765.76;;;;
2020/12/10 11:47:46;;;;;;;19.6;15.1;;;;;;;-1.35;85.14844;97766.89;;;;
2020/12/10 11:57:43;;;;;;;18.7;15;;;;;;;-1.18;84.68066;97763.08;;;;
2020/12/10 12:07:44;;;;;;;23.9;14.8;;;;;;;-1.23;85.29395;97746.39;;;;
2020/12/10 12:17:38;;;;;;;21.4;13.7;;;;;;;-1.2;85.22461;97744.04;;;;
2020/12/10 12:27:36;;;;;;;19.4;13.3;;;;;;;-1.23;85.60059;97739.27;;;;
2020/12/10 12:37:33;;;;;;;20.8;17;;;;;;;-1.27;86.09668;97737.36;;;;
2020/12/10 12:47:31;;;;;;;25.1;18.6;;;;;;;-1.17;85.96484;97746.17;;;;
2020/12/10 12:57:29;;;;;;;16.1;13.6;;;;;;;-1.05;85.7793;97738.08;;;;
2020/12/10 13:07:26;;;;;;;23.5;16.2;;;;;;;-0.94;85.23047;97736.3;;;;
2020/12/10 13:17:26;;;;;;;25.4;18;;;;;;;-0.82;84.98145;97739.55;;;;
2020/12/10 13:27:22;;;;;;;32.8;19.4;;;;;;;-0.84;84.90137;97739.81;;;;
2020/12/10 13:37:19;;;;;;;26.3;20.6;;;;;;;-0.92;85.19238;97742.13;;;;
2020/12/10 13:47:17;;;;;;;27.6;20.8;;;;;;;-0.99;85.72363;97733.61;;;;
2020/12/10 13:57:15;;;;;;;34.6;20.9;;;;;;;-0.95;86.11621;97742.63;;;;
2020/12/10 14:07:12;;;;;;;25.2;18.8;;;;;;;-1.02;86.50879;97738.37;;;;
2020/12/10 14:17:10;;;;;;;43.2;34.3;;;;;;;-0.97;86.7041;97742.11;;;;
2020/12/10 14:27:08;;;;;;;25.3;18.2;;;;;;;-0.88;86.61426;97736.08;;;;
2020/12/10 14:37:06;;;;;;;19.4;15.8;;;;;;;-0.76;86.02441;97744.61;;;;
2020/12/10 14:47:03;;;;;;;19.1;16.6;;;;;;;-0.83;86.18555;97745.91;;;;
2020/12/10 14:57:03;;;;;;;20.6;15.7;;;;;;;-0.79;86.24902;97741.67;;;;
2020/12/10 15:06:58;;;;;;;20.5;18.3;;;;;;;-0.74;86.0166;97763.69;;;;
2020/12/10 15:16:56;;;;;;;25.2;18;;;;;;;-0.78;86.03125;97778.47;;;;
2020/12/10 15:26:54;;;;;;;29.8;22.2;;;;;;;-0.68;86.0166;97767.15;;;;
2020/12/10 15:36:51;;;;;;;28.4;20.1;;;;;;;-0.6;85.57324;97774.61;;;;
2020/12/10 15:46:49;;;;;;;29.1;20.5;;;;;;;-0.63;85.61328;97794.45;;;;
2020/12/10 15:56:47;;;;;;;30.2;20.5;;;;;;;-0.64;85.68848;97787.55;;;;
2020/12/10 16:06:44;;;;;;;44.6;28.1;;;;;;;-0.62;85.74414;97771.41;;;;
2020/12/10 16:16:42;;;;;;;31;23.4;;;;;;;-0.69;86.30176;97792;;;;
2020/12/10 16:26:40;;;;;;;30.1;23.3;;;;;;;-0.64;86.29102;97819.31;;;;
2020/12/10 16:36:37;;;;;;;43.8;26.4;;;;;;;-0.48;85.92871;97836.08;;;;
2020/12/10 16:46:35;;;;;;;37.7;31.3;;;;;;;-0.45;85.67969;97850.67;;;;
2020/12/10 16:56:33;;;;;;;43.9;31.2;;;;;;;-0.48;85.77539;97817.55;;;;
2020/12/10 17:06:30;;;;;;;53.6;35.9;;;;;;;-0.53;85.49023;97815.69;;;;
2020/12/10 17:16:28;;;;;;;45.1;30.5;;;;;;;-0.45;85.57031;97816.27;;;;
2020/12/10 17:26:26;;;;;;;42.4;28.3;;;;;;;-0.42;85.3252;97834.27;;;;
2020/12/10 17:36:23;;;;;;;37.4;30.3;;;;;;;-0.45;85.3418;97824.97;;;;
2020/12/10 17:46:21;;;;;;;37;27.2;;;;;;;-0.51;85.69141;97815.41;;;;
2020/12/10 17:56:19;;;;;;;45;29.4;;;;;;;-0.49;85.45313;97826.56;;;;
2020/12/10 18:06:16;;;;;;;40.2;26.4;;;;;;;-0.5;85.22168;97835.54;;;;
2020/12/10 18:16:17;;;;;;;54;29.7;;;;;;;-0.59;85.28027;97842.38;;;;
2020/12/10 18:26:11;;;;;;;50.9;32.4;;;;;;;-0.6;85.35352;97824.89;;;;
2020/12/10 18:36:09;;;;;;;44.8;29.9;;;;;;;-0.64;85.44531;97847.61;;;;
2020/12/10 18:46:08;;;;;;;51.3;33.6;;;;;;;-0.7;85.60742;97859.22;;;;
2020/12/10 18:56:04;;;;;;;43.7;31.4;;;;;;;-0.61;85.44141;97877.02;;;;
2020/12/10 19:06:02;;;;;;;40.9;33;;;;;;;-0.53;85.3584;97896.92;;;;
2020/12/10 19:16:02;;;;;;;49.3;32.8;;;;;;;-0.54;85.65137;97908.55;;;;
2020/12/10 19:25:57;;;;;;;60.8;41.5;;;;;;;-0.61;86.14258;97914.05;;;;
2020/12/10 19:35:55;;;;;;;63.5;37.4;;;;;;;-0.47;85.69824;97919.72;;;;
2020/12/10 19:45:52;;;;;;;71.4;47;;;;;;;-0.49;85.97949;97924.48;;;;
2020/12/10 19:55:50;;;;;;;58.9;46.7;;;;;;;-0.51;86.06543;97919.43;;;;
2020/12/10 20:05:48;;;;;;;175.4;114.8;;;;;;;-0.5;86.09863;97925.52;;;;
2020/12/10 20:15:45;;;;;;;81;50.6;;;;;;;-0.49;86.0459;97919.19;;;;
2020/12/10 20:25:58;;;;;;;62.8;49.3;;;;;;;-0.49;86.03418;97924.48;;;;
2020/12/10 20:35:41;;;;;;;75.5;45.9;;;;;;;-0.53;86.06055;97923.39;;;;
2020/12/10 20:45:38;;;;;;;74.3;49.7;;;;;;;-0.53;85.78613;97916.25;;;;
2020/12/10 20:55:36;;;;;;;91.6;53.6;;;;;;;-0.53;85.54492;97920.74;;;;
2020/12/10 21:05:34;;;;;;;76.7;51.3;;;;;;;-0.57;85.42871;97936.33;;;;
2020/12/10 21:15:31;;;;;;;83.4;55.5;;;;;;;-0.52;85.17188;97938.2;;;;
2020/12/10 21:25:29;;;;;;;105.3;60.3;;;;;;;-0.69;85.73242;97953.39;;;;
2020/12/10 21:35:27;;;;;;;64.3;47;;;;;;;-0.68;85.67676;97960.28;;;;
2020/12/10 21:45:24;;;;;;;63.4;49.4;;;;;;;-0.66;85.41992;97974.85;;;;
2020/12/10 21:55:23;;;;;;;94.1;63.2;;;;;;;-0.65;85.75;97975.66;;;;
2020/12/10 22:05:20;;;;;;;91;63.5;;;;;;;-0.67;85.79004;97969.83;;;;
2020/12/10 22:15:18;;;;;;;98.1;68.7;;;;;;;-0.65;85.4668;97965.88;;;;
2020/12/10 22:25:15;;;;;;;109;75.5;;;;;;;-0.6;85.59473;97973.07;;;;
2020/12/10 22:35:16;;;;;;;95;65.1;;;;;;;-0.52;85.31641;97973.41;;;;
2020/12/10 22:45:13;;;;;;;85.9;63;;;;;;;-0.54;85.02637;97985.3;;;;
2020/12/10 22:55:08;;;;;;;72.9;52.3;;;;;;;-0.65;85.32227;97978.3;;;;
2020/12/10 23:05:06;;;;;;;81.6;61.4;;;;;;;-0.8;84.52539;97983.46;;;;
2020/12/10 23:15:04;;;;;;;67.3;47.3;;;;;;;-1.08;84.96289;97989.77;;;;
2020/12/10 23:25:03;;;;;;;49.7;44.2;;;;;;;-1.34;86.30078;97993.94;;;;
2020/12/10 23:34:59;;;;;;;67.4;45.8;;;;;;;-1.38;86.65332;97997.31;;;;
2020/12/10 23:44:56;;;;;;;87.6;49.6;;;;;;;-1.33;85.65723;98000.03;;;;
2020/12/10 23:54:54;;;;;;;56.5;40.1;;;;;;;-1.43;85.05762;97990.14;;;;
